Time;durP1;ratioP1;P1;durP2;ratioP2;P2;SDS_P1;SDS_P2;PMS_P1;PMS_P2;Temp;Humidity;BMP_temperature;BMP_pressure;BME280_temperature;BME280_humidity;BME280_pressure;Samples;Min_cycle;Max_cycle;Signal;HPM_P1;HPM_P2
2023/08/06 00:00:58;;;;;;;40.35;8.43;;;;;;;;;;5072407;28;20389;-47
2023/08/06 00:03:26;;;;;;;43.53;8.55;;;;;;;;;;5072018;28;20029;-47
2023/08/06 00:05:53;;;;;;;42.42;9.13;;;;;;;;;;5071236;28;20031;-47
2023/08/06 00:08:21;;;;;;;55.53;9.70;;;;;;;;;;5071044;28;20371;-45
2023/08/06 00:10:49;;;;;;;40.65;9.48;;;;;;;;;;5072275;28;20031;-46
2023/08/06 00:13:16;;;;;;;45.10;9.60;;;;;;;;;;5055252;28;20045;-45
2023/08/06 00:15:43;;;;;;;47.60;9.32;;;;;;;;;;5065866;28;20025;-47
2023/08/06 00:18:10;;;;;;;38.85;9.48;;;;;;;;;;5072197;28;20086;-46
2023/08/06 00:20:40;;;;;;;45.17;8.80;;;;;;;;;;5072200;28;20436;-45
2023/08/06 00:23:08;;;;;;;42.72;10.02;;;;;;;;;;5073995;28;20043;-47
2023/08/06 00:25:35;;;;;;;45.35;9.40;;;;;;;;;;5059621;28;20041;-46
2023/08/06 00:28:02;;;;;;;46.45;9.98;;;;;;;;;;5071243;28;20025;-45
2023/08/06 00:30:29;;;;;;;38.72;9.05;;;;;;;;;;5071986;28;20066;-48
2023/08/06 00:32:56;;;;;;;43.60;8.77;;;;;;;;;;5071884;28;20037;-45
2023/08/06 00:35:23;;;;;;;40.95;9.38;;;;;;;;;;5070158;28;20089;-46
2023/08/06 00:37:50;;;;;;;52.50;9.95;;;;;;;;;;5071694;28;20036;-46
2023/08/06 00:40:21;;;;;;;35.75;8.77;;;;;;;;;;5045283;28;20044;-48
2023/08/06 00:42:48;;;;;;;48.50;9.80;;;;;;;;;;5057705;28;20047;-46
2023/08/06 00:45:15;;;;;;;49.22;9.90;;;;;;;;;;5057497;28;20125;-47
2023/08/06 00:47:42;;;;;;;41.17;9.20;;;;;;;;;;5071141;28;20029;-45
2023/08/06 00:50:10;;;;;;;51.20;9.80;;;;;;;;;;5071367;28;20035;-46
2023/08/06 00:52:37;;;;;;;53.60;10.00;;;;;;;;;;5071658;28;20036;-46
2023/08/06 00:55:05;;;;;;;43.42;9.10;;;;;;;;;;5071383;28;20035;-46
2023/08/06 00:57:32;;;;;;;37.25;7.75;;;;;;;;;;5071672;28;20541;-46
2023/08/06 00:59:59;;;;;;;47.97;9.23;;;;;;;;;;5071402;28;20371;-47
2023/08/06 01:02:26;;;;;;;46.47;8.95;;;;;;;;;;5071187;28;20111;-47
2023/08/06 01:04:54;;;;;;;49.30;9.13;;;;;;;;;;5065934;28;20029;-47
2023/08/06 01:07:21;;;;;;;36.00;8.15;;;;;;;;;;5050281;28;20025;-50
2023/08/06 01:09:57;;;;;;;35.33;9.23;;;;;;;;;;5048947;28;20052;-47
2023/08/06 01:12:24;;;;;;;44.00;8.45;;;;;;;;;;5043570;28;20044;-47
2023/08/06 01:15:09;;;;;;;32.95;7.88;;;;;;;;;;5040983;28;20139;-46
2023/08/06 01:17:37;;;;;;;33.97;8.35;;;;;;;;;;5037729;28;20028;-47
2023/08/06 01:20:04;;;;;;;39.72;8.73;;;;;;;;;;5051189;28;20120;-48
2023/08/06 01:22:32;;;;;;;37.47;8.63;;;;;;;;;;5044737;28;20061;-47
2023/08/06 01:24:59;;;;;;;39.42;8.73;;;;;;;;;;5044237;28;20119;-46
2023/08/06 01:27:39;;;;;;;30.50;7.95;;;;;;;;;;5051096;28;20513;-47
2023/08/06 01:30:13;;;;;;;28.50;7.60;;;;;;;;;;5050875;28;20055;-47
2023/08/06 01:32:43;;;;;;;27.70;7.38;;;;;;;;;;5051072;28;20390;-47
2023/08/06 01:35:12;;;;;;;26.55;7.15;;;;;;;;;;5050837;28;20037;-51
2023/08/06 01:37:40;;;;;;;39.40;8.07;;;;;;;;;;5049852;28;20386;-48
2023/08/06 01:40:11;;;;;;;27.98;7.93;;;;;;;;;;5049664;28;20029;-49
2023/08/06 01:42:39;;;;;;;29.90;8.25;;;;;;;;;;5049857;28;20490;-46
2023/08/06 01:45:07;;;;;;;30.45;8.05;;;;;;;;;;5052563;28;20021;-47
2023/08/06 01:47:34;;;;;;;30.30;7.25;;;;;;;;;;5057410;28;20029;-47
2023/08/06 01:50:01;;;;;;;35.65;7.30;;;;;;;;;;5060190;28;20025;-49
2023/08/06 01:52:28;;;;;;;36.80;8.15;;;;;;;;;;5055761;28;20156;-49
2023/08/06 01:54:55;;;;;;;27.42;7.30;;;;;;;;;;5050081;28;20025;-49
2023/08/06 01:57:22;;;;;;;29.58;7.38;;;;;;;;;;5048306;28;20029;-48
2023/08/06 01:59:49;;;;;;;39.97;8.50;;;;;;;;;;5050285;28;20398;-49
2023/08/06 02:02:16;;;;;;;32.25;7.97;;;;;;;;;;5050411;28;20037;-48
2023/08/06 02:04:43;;;;;;;28.42;6.82;;;;;;;;;;5049736;28;20056;-48
2023/08/06 02:07:10;;;;;;;35.28;7.85;;;;;;;;;;5050356;28;20368;-48
2023/08/06 02:09:37;;;;;;;32.72;7.38;;;;;;;;;;5052980;28;20037;-50
2023/08/06 02:12:05;;;;;;;39.63;7.95;;;;;;;;;;5050611;28;20075;-48
2023/08/06 02:14:32;;;;;;;35.05;7.63;;;;;;;;;;5050838;28;20029;-49
2023/08/06 02:16:59;;;;;;;44.00;8.65;;;;;;;;;;5050692;28;20056;-48
2023/08/06 02:19:26;;;;;;;37.67;7.88;;;;;;;;;;5050732;28;20025;-49
2023/08/06 02:21:53;;;;;;;32.33;8.27;;;;;;;;;;5050573;28;20045;-51
2023/08/06 02:24:20;;;;;;;32.97;7.63;;;;;;;;;;5050139;28;20071;-49
2023/08/06 02:26:49;;;;;;;35.42;6.63;;;;;;;;;;5049231;28;20033;-48
2023/08/06 02:29:16;;;;;;;31.63;6.78;;;;;;;;;;5065361;28;20055;-49
2023/08/06 02:31:43;;;;;;;37.30;6.82;;;;;;;;;;5059446;28;20021;-51
2023/08/06 02:34:10;;;;;;;29.35;6.40;;;;;;;;;;5061541;28;20059;-50
2023/08/06 02:36:37;;;;;;;22.63;5.88;;;;;;;;;;5057481;28;20020;-49
2023/08/06 02:39:04;;;;;;;30.95;6.80;;;;;;;;;;5053448;28;20016;-47
2023/08/06 02:41:32;;;;;;;27.52;6.05;;;;;;;;;;5053353;28;20391;-47
2023/08/06 02:43:59;;;;;;;24.23;6.78;;;;;;;;;;5052494;28;20033;-48
2023/08/06 02:46:26;;;;;;;24.20;6.35;;;;;;;;;;5053873;28;20040;-48
2023/08/06 02:48:57;;;;;;;28.00;6.75;;;;;;;;;;5054202;28;20116;-50
2023/08/06 02:51:24;;;;;;;25.52;6.43;;;;;;;;;;5054147;28;20032;-46
2023/08/06 02:53:51;;;;;;;23.08;5.45;;;;;;;;;;5053910;28;20025;-48
2023/08/06 02:56:18;;;;;;;21.60;5.30;;;;;;;;;;5054177;28;20052;-47
2023/08/06 02:58:45;;;;;;;20.63;6.03;;;;;;;;;;5054068;28;20029;-47
2023/08/06 03:01:12;;;;;;;21.30;6.22;;;;;;;;;;5053863;28;20144;-47
2023/08/06 03:03:39;;;;;;;18.60;5.65;;;;;;;;;;5053856;28;20032;-46
2023/08/06 03:06:06;;;;;;;23.00;5.20;;;;;;;;;;5053971;28;20037;-47
2023/08/06 03:08:33;;;;;;;19.98;6.10;;;;;;;;;;5053809;28;20134;-46
2023/08/06 03:11:00;;;;;;;29.90;6.35;;;;;;;;;;5053728;28;20108;-46
2023/08/06 03:13:28;;;;;;;24.08;5.95;;;;;;;;;;5053804;28;20504;-47
2023/08/06 03:15:58;;;;;;;25.50;5.90;;;;;;;;;;5053700;28;20033;-46
2023/08/06 03:18:28;;;;;;;21.38;5.55;;;;;;;;;;5053691;28;20040;-46
2023/08/06 03:20:56;;;;;;;24.67;6.22;;;;;;;;;;5053599;28;20029;-47
2023/08/06 03:23:23;;;;;;;17.45;5.07;;;;;;;;;;5053648;28;20406;-46
2023/08/06 03:25:50;;;;;;;19.88;4.72;;;;;;;;;;5053343;28;20441;-47
2023/08/06 03:28:17;;;;;;;20.85;5.60;;;;;;;;;;5053635;28;20033;-47
2023/08/06 03:30:44;;;;;;;27.00;6.20;;;;;;;;;;5053252;28;20795;-47
2023/08/06 03:33:11;;;;;;;18.05;5.20;;;;;;;;;;5053385;28;20033;-47
2023/08/06 03:35:38;;;;;;;19.95;5.13;;;;;;;;;;5053535;28;20029;-47
2023/08/06 03:38:05;;;;;;;18.13;5.65;;;;;;;;;;5053342;28;20028;-47
2023/08/06 03:40:32;;;;;;;18.05;5.22;;;;;;;;;;5052929;28;20023;-50
2023/08/06 03:42:59;;;;;;;15.43;4.82;;;;;;;;;;5053309;28;20372;-48
2023/08/06 03:45:26;;;;;;;19.25;4.90;;;;;;;;;;5053119;28;20037;-46
2023/08/06 03:47:53;;;;;;;18.52;4.57;;;;;;;;;;5053151;28;20446;-47
2023/08/06 03:50:20;;;;;;;22.63;5.63;;;;;;;;;;5052969;28;20040;-48
2023/08/06 03:52:47;;;;;;;18.55;4.85;;;;;;;;;;5051845;28;20552;-47
2023/08/06 03:55:14;;;;;;;17.33;4.80;;;;;;;;;;5052964;28;20025;-47
2023/08/06 03:57:41;;;;;;;19.13;4.78;;;;;;;;;;5053071;28;20032;-47
2023/08/06 04:00:09;;;;;;;17.75;5.15;;;;;;;;;;5052742;28;20030;-46
2023/08/06 04:02:36;;;;;;;14.10;4.53;;;;;;;;;;5052862;28;20097;-48
2023/08/06 04:05:03;;;;;;;13.57;4.65;;;;;;;;;;5052706;28;20131;-47
2023/08/06 04:07:30;;;;;;;14.80;4.50;;;;;;;;;;5052819;28;20040;-48
2023/08/06 04:10:00;;;;;;;11.30;4.25;;;;;;;;;;5052515;28;20032;-51
2023/08/06 04:12:31;;;;;;;13.85;4.45;;;;;;;;;;5060324;28;20087;-48
2023/08/06 04:15:01;;;;;;;16.73;4.60;;;;;;;;;;5059605;28;20032;-48
2023/08/06 04:17:28;;;;;;;14.25;4.90;;;;;;;;;;5053137;28;20040;-48
2023/08/06 04:19:58;;;;;;;13.45;4.70;;;;;;;;;;5052546;28;20391;-48
2023/08/06 04:22:26;;;;;;;9.57;4.25;;;;;;;;;;5062693;28;20392;-50
2023/08/06 04:24:53;;;;;;;14.32;4.38;;;;;;;;;;5072099;28;20183;-48
2023/08/06 04:27:20;;;;;;;15.40;5.07;;;;;;;;;;5072344;28;20387;-46
2023/08/06 04:29:47;;;;;;;13.27;4.18;;;;;;;;;;5072250;28;20489;-47
2023/08/06 04:32:14;;;;;;;15.63;4.43;;;;;;;;;;5072319;28;20028;-48
2023/08/06 04:34:41;;;;;;;15.27;4.88;;;;;;;;;;5072258;28;20028;-47
2023/08/06 04:37:08;;;;;;;10.93;4.30;;;;;;;;;;5071998;28;20105;-47
2023/08/06 04:39:35;;;;;;;14.20;4.35;;;;;;;;;;5072176;28;20024;-49
2023/08/06 04:42:02;;;;;;;18.27;4.82;;;;;;;;;;5072029;28;20020;-47
2023/08/06 04:44:29;;;;;;;15.75;3.90;;;;;;;;;;5072069;28;20260;-47
2023/08/06 04:46:56;;;;;;;22.15;5.05;;;;;;;;;;5071972;28;20039;-48
2023/08/06 04:49:23;;;;;;;21.00;4.40;;;;;;;;;;5072056;28;20039;-49
2023/08/06 04:51:50;;;;;;;21.05;4.90;;;;;;;;;;5055070;28;20094;-47
2023/08/06 04:54:17;;;;;;;17.25;4.22;;;;;;;;;;5052029;28;20111;-46
2023/08/06 04:56:44;;;;;;;14.80;4.28;;;;;;;;;;5058307;28;20021;-47
2023/08/06 04:59:11;;;;;;;16.23;4.25;;;;;;;;;;5063590;28;20021;-47
2023/08/06 05:01:38;;;;;;;15.60;3.35;;;;;;;;;;5061941;28;20385;-47
2023/08/06 05:04:05;;;;;;;12.23;4.30;;;;;;;;;;5060603;28;20025;-47
2023/08/06 05:06:32;;;;;;;17.23;3.90;;;;;;;;;;5060728;28;20090;-47
2023/08/06 05:08:59;;;;;;;15.65;3.90;;;;;;;;;;5062003;28;20714;-47
2023/08/06 05:11:26;;;;;;;16.60;4.63;;;;;;;;;;5060485;28;20071;-47
2023/08/06 05:13:53;;;;;;;15.40;4.40;;;;;;;;;;5060556;28;20020;-47
2023/08/06 05:16:20;;;;;;;16.70;4.28;;;;;;;;;;5068485;28;20026;-47
2023/08/06 05:18:47;;;;;;;14.57;3.55;;;;;;;;;;5071622;28;20032;-48
2023/08/06 05:21:16;;;;;;;17.23;3.97;;;;;;;;;;5069019;28;20093;-49
2023/08/06 05:23:43;;;;;;;9.80;3.88;;;;;;;;;;5061742;28;20164;-46
2023/08/06 05:26:10;;;;;;;13.60;4.45;;;;;;;;;;5060380;28;20053;-48
2023/08/06 05:28:37;;;;;;;12.55;4.10;;;;;;;;;;5054333;28;20119;-48
2023/08/06 05:31:05;;;;;;;14.98;3.92;;;;;;;;;;5051299;28;20060;-46
2023/08/06 05:33:32;;;;;;;11.55;4.07;;;;;;;;;;5051467;28;20026;-47
2023/08/06 05:35:59;;;;;;;17.95;4.45;;;;;;;;;;5051407;28;20025;-46
2023/08/06 05:38:26;;;;;;;20.40;4.32;;;;;;;;;;5051539;28;20394;-46
2023/08/06 05:40:53;;;;;;;13.63;3.95;;;;;;;;;;5051276;28;20111;-47
2023/08/06 05:43:20;;;;;;;15.10;4.18;;;;;;;;;;5051304;28;20516;-47
2023/08/06 05:45:47;;;;;;;18.50;4.70;;;;;;;;;;5051342;28;20029;-48
2023/08/06 05:48:14;;;;;;;16.73;3.90;;;;;;;;;;5051353;28;20029;-48
2023/08/06 05:50:41;;;;;;;16.17;4.53;;;;;;;;;;5051335;28;20100;-48
2023/08/06 05:53:08;;;;;;;14.43;4.07;;;;;;;;;;5051199;28;20411;-46
2023/08/06 05:55:36;;;;;;;16.15;3.97;;;;;;;;;;5051240;28;20039;-49
2023/08/06 05:58:03;;;;;;;17.13;4.25;;;;;;;;;;5051368;28;20501;-47
2023/08/06 06:00:30;;;;;;;16.17;4.35;;;;;;;;;;5051219;28;20056;-48
2023/08/06 06:02:56;;;;;;;14.55;4.30;;;;;;;;;;5051611;28;20471;-47
2023/08/06 06:05:23;;;;;;;14.95;3.88;;;;;;;;;;5055085;28;20368;-47
2023/08/06 06:07:50;;;;;;;15.77;3.90;;;;;;;;;;5055168;28;20061;-48
2023/08/06 06:10:17;;;;;;;17.42;3.83;;;;;;;;;;5055144;28;20025;-50
2023/08/06 06:12:44;;;;;;;12.15;3.88;;;;;;;;;;5055105;28;20025;-48
2023/08/06 06:15:11;;;;;;;21.20;5.00;;;;;;;;;;5054999;28;20094;-46
2023/08/06 06:17:39;;;;;;;18.38;4.22;;;;;;;;;;5054986;28;20032;-51
2023/08/06 06:20:06;;;;;;;13.52;4.03;;;;;;;;;;5055122;28;20106;-48
2023/08/06 06:22:33;;;;;;;17.67;4.30;;;;;;;;;;5054911;28;20116;-47
2023/08/06 06:25:00;;;;;;;13.95;4.22;;;;;;;;;;5054452;28;20521;-50
2023/08/06 06:27:27;;;;;;;15.55;4.00;;;;;;;;;;5054734;28;20052;-47
2023/08/06 06:29:54;;;;;;;14.38;3.88;;;;;;;;;;5053415;28;20364;-48
2023/08/06 06:32:22;;;;;;;13.00;3.88;;;;;;;;;;5054589;28;20047;-48
2023/08/06 06:34:49;;;;;;;15.35;3.88;;;;;;;;;;5054597;28;20479;-48
2023/08/06 06:37:16;;;;;;;10.77;3.42;;;;;;;;;;5054619;28;20051;-47
2023/08/06 06:39:44;;;;;;;12.65;4.07;;;;;;;;;;5053096;28;20047;-47
2023/08/06 06:42:11;;;;;;;12.27;4.05;;;;;;;;;;5054756;28;20036;-50
2023/08/06 06:44:38;;;;;;;15.45;4.07;;;;;;;;;;5054414;28;20487;-47
2023/08/06 06:47:05;;;;;;;16.77;3.65;;;;;;;;;;5054363;28;20045;-47
2023/08/06 06:49:32;;;;;;;13.88;3.88;;;;;;;;;;5054325;28;20146;-48
2023/08/06 06:51:59;;;;;;;12.63;3.80;;;;;;;;;;5054314;28;20029;-49
2023/08/06 06:54:26;;;;;;;14.90;3.80;;;;;;;;;;5054253;28;20029;-49
2023/08/06 06:56:52;;;;;;;11.95;3.38;;;;;;;;;;5054210;28;20068;-48
2023/08/06 06:59:19;;;;;;;12.75;3.80;;;;;;;;;;5054264;28;20414;-48
2023/08/06 07:01:46;;;;;;;13.32;3.90;;;;;;;;;;5054108;28;20498;-50
2023/08/06 07:04:13;;;;;;;10.45;3.60;;;;;;;;;;5053842;28;20170;-50
2023/08/06 07:06:40;;;;;;;12.07;3.50;;;;;;;;;;5054014;28;20041;-48
2023/08/06 07:09:07;;;;;;;16.33;3.67;;;;;;;;;;5053925;28;20037;-48
2023/08/06 07:11:34;;;;;;;12.77;3.53;;;;;;;;;;5053884;28;20467;-48
2023/08/06 07:14:01;;;;;;;12.40;3.40;;;;;;;;;;5053262;28;20082;-48
2023/08/06 07:16:29;;;;;;;10.15;3.42;;;;;;;;;;5053883;28;20112;-47
2023/08/06 07:18:56;;;;;;;12.10;3.65;;;;;;;;;;5053863;28;20119;-47
2023/08/06 07:21:23;;;;;;;11.85;3.75;;;;;;;;;;5053577;28;20127;-47
2023/08/06 07:23:50;;;;;;;12.05;3.53;;;;;;;;;;5053729;28;20036;-47
2023/08/06 07:26:17;;;;;;;12.25;3.28;;;;;;;;;;5053505;28;20518;-47
2023/08/06 07:28:44;;;;;;;13.45;3.58;;;;;;;;;;5053588;28;20048;-47
2023/08/06 07:31:12;;;;;;;12.80;3.38;;;;;;;;;;5052014;28;20372;-47
2023/08/06 07:33:39;;;;;;;12.68;3.50;;;;;;;;;;5052241;28;20446;-47
2023/08/06 07:36:09;;;;;;;12.48;3.22;;;;;;;;;;5053556;28;20024;-49
2023/08/06 07:38:37;;;;;;;17.73;3.88;;;;;;;;;;5052156;28;20108;-48
2023/08/06 07:41:05;;;;;;;17.25;3.63;;;;;;;;;;5053318;28;20386;-46
2023/08/06 07:43:32;;;;;;;10.32;3.35;;;;;;;;;;5053371;28;20031;-48
2023/08/06 07:46:02;;;;;;;9.80;3.13;;;;;;;;;;5053272;28;20037;-48
2023/08/06 07:48:29;;;;;;;14.73;3.60;;;;;;;;;;5053338;28;20021;-49
2023/08/06 07:50:56;;;;;;;10.85;3.35;;;;;;;;;;5053133;28;20037;-48
2023/08/06 07:53:26;;;;;;;12.30;3.08;;;;;;;;;;5053198;28;20132;-49
2023/08/06 07:55:54;;;;;;;11.07;3.28;;;;;;;;;;5053133;28;20043;-47
2023/08/06 07:58:21;;;;;;;8.95;3.10;;;;;;;;;;5053138;28;20099;-46
2023/08/06 08:00:48;;;;;;;12.38;3.42;;;;;;;;;;5052953;28;20021;-47
2023/08/06 08:03:15;;;;;;;12.13;3.25;;;;;;;;;;5053036;28;20034;-49
2023/08/06 08:05:43;;;;;;;6.55;3.28;;;;;;;;;;5052855;28;20029;-47
2023/08/06 08:08:10;;;;;;;12.63;3.45;;;;;;;;;;5052998;28;20115;-46
2023/08/06 08:10:38;;;;;;;13.82;2.97;;;;;;;;;;5052819;28;20029;-47
2023/08/06 08:13:05;;;;;;;13.18;3.40;;;;;;;;;;5052606;28;20082;-47
2023/08/06 08:15:33;;;;;;;17.23;3.60;;;;;;;;;;5052780;28;20033;-47
2023/08/06 08:18:00;;;;;;;11.02;3.50;;;;;;;;;;5052711;28;20060;-48
2023/08/06 08:20:35;;;;;;;10.73;3.30;;;;;;;;;;5052643;28;20135;-47
2023/08/06 08:23:02;;;;;;;13.65;3.63;;;;;;;;;;5052558;28;20119;-48
2023/08/06 08:25:29;;;;;;;10.52;3.30;;;;;;;;;;5051895;28;20049;-47
2023/08/06 08:27:56;;;;;;;9.00;2.90;;;;;;;;;;5052027;28;20479;-48
2023/08/06 08:30:24;;;;;;;8.52;3.13;;;;;;;;;;5052394;28;20443;-48
2023/08/06 08:32:51;;;;;;;9.63;3.00;;;;;;;;;;5052360;28;20182;-49
2023/08/06 08:35:18;;;;;;;9.65;3.20;;;;;;;;;;5052339;28;20471;-47
2023/08/06 08:37:45;;;;;;;15.68;3.90;;;;;;;;;;5052148;28;20040;-47
2023/08/06 08:40:12;;;;;;;13.55;3.17;;;;;;;;;;5052268;28;20025;-47
2023/08/06 08:42:39;;;;;;;15.32;3.50;;;;;;;;;;5052283;28;20029;-47
2023/08/06 08:45:10;;;;;;;10.23;3.13;;;;;;;;;;5052206;28;20108;-48
2023/08/06 08:47:37;;;;;;;10.10;3.03;;;;;;;;;;5052202;28;20060;-47
2023/08/06 08:50:06;;;;;;;13.85;2.88;;;;;;;;;;5052036;28;20028;-46
2023/08/06 08:52:34;;;;;;;13.20;3.40;;;;;;;;;;5051982;28;20028;-47
2023/08/06 08:55:02;;;;;;;14.80;3.60;;;;;;;;;;5052069;28;20120;-47
2023/08/06 08:57:29;;;;;;;10.70;3.05;;;;;;;;;;5052062;28;20600;-47
2023/08/06 08:59:56;;;;;;;13.05;3.35;;;;;;;;;;5051939;28;20372;-47
2023/08/06 09:02:25;;;;;;;10.65;3.35;;;;;;;;;;5051862;28;20040;-47
2023/08/06 09:04:53;;;;;;;13.20;3.83;;;;;;;;;;5051909;28;20023;-49
2023/08/06 09:07:21;;;;;;;15.27;3.10;;;;;;;;;;5051848;28;20040;-50
2023/08/06 09:09:49;;;;;;;14.40;3.05;;;;;;;;;;5051790;28;20041;-47
2023/08/06 09:12:17;;;;;;;12.63;3.42;;;;;;;;;;5051786;28;20079;-48
2023/08/06 09:14:44;;;;;;;8.05;2.92;;;;;;;;;;5051814;28;20025;-48
2023/08/06 09:17:11;;;;;;;15.55;3.03;;;;;;;;;;5051674;28;20032;-47
2023/08/06 09:19:38;;;;;;;11.63;3.25;;;;;;;;;;5050275;28;20391;-47
2023/08/06 09:22:10;;;;;;;10.80;3.25;;;;;;;;;;5051669;28;20753;-46
2023/08/06 09:24:40;;;;;;;16.33;3.15;;;;;;;;;;5051439;28;20064;-47
2023/08/06 09:27:12;;;;;;;9.15;2.83;;;;;;;;;;5051354;28;20433;-47
2023/08/06 09:29:43;;;;;;;11.45;3.30;;;;;;;;;;5051369;28;20043;-47
2023/08/06 09:32:10;;;;;;;10.68;2.88;;;;;;;;;;5051579;28;20028;-49
2023/08/06 09:34:40;;;;;;;9.80;2.97;;;;;;;;;;5051565;28;20031;-47
2023/08/06 09:37:07;;;;;;;11.82;3.00;;;;;;;;;;5050985;28;20479;-47
2023/08/06 09:39:34;;;;;;;11.20;3.05;;;;;;;;;;5051384;28;20032;-46
2023/08/06 09:42:01;;;;;;;14.27;3.35;;;;;;;;;;5051265;28;20375;-47
2023/08/06 09:44:29;;;;;;;9.57;2.55;;;;;;;;;;5053623;28;20500;-48
2023/08/06 09:46:57;;;;;;;13.05;2.90;;;;;;;;;;5051328;28;20475;-47
2023/08/06 09:49:28;;;;;;;11.50;2.80;;;;;;;;;;5051113;28;20037;-46
2023/08/06 09:51:59;;;;;;;12.95;3.20;;;;;;;;;;5051407;28;20029;-47
2023/08/06 09:54:27;;;;;;;7.05;2.25;;;;;;;;;;5053043;28;20099;-47
2023/08/06 09:56:54;;;;;;;9.40;2.65;;;;;;;;;;5051319;28;20025;-47
2023/08/06 09:59:22;;;;;;;11.25;2.83;;;;;;;;;;5051259;28;20025;-47
2023/08/06 10:01:49;;;;;;;8.27;2.55;;;;;;;;;;5051124;28;20029;-49
2023/08/06 10:04:17;;;;;;;8.52;2.75;;;;;;;;;;5051283;28;20036;-48
2023/08/06 10:06:47;;;;;;;18.27;3.33;;;;;;;;;;5050949;28;20090;-48
2023/08/06 10:09:15;;;;;;;7.60;2.78;;;;;;;;;;5050917;28;20116;-48
2023/08/06 10:11:47;;;;;;;10.52;2.90;;;;;;;;;;5051055;28;20040;-48
2023/08/06 10:14:17;;;;;;;11.13;2.83;;;;;;;;;;5051008;28;20033;-48
2023/08/06 10:16:45;;;;;;;14.85;2.58;;;;;;;;;;5051117;28;20048;-48
2023/08/06 10:19:13;;;;;;;12.88;2.70;;;;;;;;;;5050983;28;20609;-47
2023/08/06 10:21:40;;;;;;;8.35;2.97;;;;;;;;;;5051105;28;20051;-47
2023/08/06 10:24:10;;;;;;;10.57;2.65;;;;;;;;;;5050872;28;20033;-47
2023/08/06 10:26:37;;;;;;;8.45;2.58;;;;;;;;;;5050780;28;20829;-47
2023/08/06 10:29:22;;;;;;;11.70;3.15;;;;;;;;;;5050986;28;20111;-46
2023/08/06 10:31:56;;;;;;;11.23;2.88;;;;;;;;;;5051047;28;20044;-46
2023/08/06 10:34:23;;;;;;;7.75;2.60;;;;;;;;;;5050853;28;20078;-48
2023/08/06 10:36:50;;;;;;;8.10;2.70;;;;;;;;;;5050937;28;20110;-51
2023/08/06 10:39:18;;;;;;;10.88;2.50;;;;;;;;;;5050713;28;20082;-46
2023/08/06 10:41:45;;;;;;;7.32;2.78;;;;;;;;;;5050984;28;20044;-48
2023/08/06 10:44:12;;;;;;;8.15;2.72;;;;;;;;;;5050874;28;20041;-46
2023/08/06 10:46:39;;;;;;;8.40;2.75;;;;;;;;;;5050829;28;20119;-48
2023/08/06 10:49:07;;;;;;;6.25;2.42;;;;;;;;;;5050865;28;20045;-51
2023/08/06 10:51:34;;;;;;;8.68;2.88;;;;;;;;;;5054302;28;20044;-47
2023/08/06 10:54:01;;;;;;;12.32;2.88;;;;;;;;;;5054351;28;20479;-46
2023/08/06 10:56:28;;;;;;;4.90;2.20;;;;;;;;;;5054347;28;20063;-50
2023/08/06 10:58:56;;;;;;;10.45;2.80;;;;;;;;;;5054136;28;20402;-47
2023/08/06 11:01:24;;;;;;;10.55;2.85;;;;;;;;;;5052678;28;20029;-49
2023/08/06 11:03:53;;;;;;;9.88;3.03;;;;;;;;;;5054074;28;20095;-49
2023/08/06 11:06:20;;;;;;;11.30;2.67;;;;;;;;;;5053935;28;20279;-48
2023/08/06 11:08:51;;;;;;;13.98;2.67;;;;;;;;;;5053995;28;20052;-47
2023/08/06 11:11:18;;;;;;;8.75;2.47;;;;;;;;;;5053951;28;20025;-48
2023/08/06 11:13:47;;;;;;;11.18;2.65;;;;;;;;;;5053826;28;20028;-48
2023/08/06 11:16:15;;;;;;;10.50;2.65;;;;;;;;;;5052521;28;20037;-48
2023/08/06 11:18:42;;;;;;;10.55;2.60;;;;;;;;;;5053840;28;20021;-48
2023/08/06 11:21:09;;;;;;;9.85;2.45;;;;;;;;;;5053827;28;20029;-46
2023/08/06 11:23:37;;;;;;;6.97;2.40;;;;;;;;;;5053878;28;20032;-48
2023/08/06 11:26:04;;;;;;;9.13;2.70;;;;;;;;;;5053520;28;20083;-48
2023/08/06 11:28:31;;;;;;;5.55;2.50;;;;;;;;;;5053550;28;20033;-47
2023/08/06 11:31:01;;;;;;;7.32;2.50;;;;;;;;;;5053281;28;20040;-49
2023/08/06 11:33:28;;;;;;;8.98;2.65;;;;;;;;;;5053512;28;20029;-49
2023/08/06 11:35:56;;;;;;;11.10;2.72;;;;;;;;;;5053590;28;20033;-47
2023/08/06 11:38:26;;;;;;;7.82;2.80;;;;;;;;;;5053591;28;20021;-49
2023/08/06 11:40:54;;;;;;;6.95;2.40;;;;;;;;;;5053359;28;20033;-48
2023/08/06 11:43:22;;;;;;;11.13;2.72;;;;;;;;;;5053371;28;20035;-47
2023/08/06 11:45:54;;;;;;;7.80;2.35;;;;;;;;;;5053313;28;20040;-47
2023/08/06 11:48:21;;;;;;;9.55;2.92;;;;;;;;;;5053236;28;20095;-48
2023/08/06 11:50:48;;;;;;;13.15;2.80;;;;;;;;;;5053235;28;20037;-48
2023/08/06 11:53:15;;;;;;;10.45;2.67;;;;;;;;;;5053270;28;20095;-49
2023/08/06 11:55:42;;;;;;;6.78;2.78;;;;;;;;;;5053131;28;20036;-46
2023/08/06 11:58:14;;;;;;;9.40;2.42;;;;;;;;;;5053182;28;20020;-49
2023/08/06 12:00:41;;;;;;;5.57;2.67;;;;;;;;;;5052818;28;20035;-48
2023/08/06 12:03:08;;;;;;;9.35;2.55;;;;;;;;;;5052942;28;20029;-48
2023/08/06 12:05:36;;;;;;;9.50;2.85;;;;;;;;;;5052931;28;20025;-46
2023/08/06 12:08:04;;;;;;;6.80;2.67;;;;;;;;;;5052969;28;20021;-48
2023/08/06 12:10:31;;;;;;;9.27;3.08;;;;;;;;;;5051615;28;20056;-49
2023/08/06 12:12:58;;;;;;;10.35;2.85;;;;;;;;;;5053023;28;20170;-50
2023/08/06 12:15:26;;;;;;;10.15;3.13;;;;;;;;;;5052872;28;20032;-48
2023/08/06 12:17:53;;;;;;;8.63;3.35;;;;;;;;;;5052718;28;20017;-48
2023/08/06 12:20:20;;;;;;;7.78;3.15;;;;;;;;;;5052715;28;20017;-48
2023/08/06 12:22:47;;;;;;;9.10;3.17;;;;;;;;;;5052799;28;20025;-50
2023/08/06 12:25:14;;;;;;;10.05;3.20;;;;;;;;;;5052543;28;20068;-48
2023/08/06 12:27:42;;;;;;;11.07;3.00;;;;;;;;;;5052566;28;20043;-50
2023/08/06 12:30:10;;;;;;;7.80;3.00;;;;;;;;;;5052423;28;20365;-46
2023/08/06 12:32:37;;;;;;;11.23;3.65;;;;;;;;;;5052606;28;20017;-47
2023/08/06 12:35:04;;;;;;;10.43;2.83;;;;;;;;;;5052588;28;20049;-46
2023/08/06 12:37:31;;;;;;;8.00;2.70;;;;;;;;;;5052241;28;20033;-52
2023/08/06 12:39:58;;;;;;;9.48;2.75;;;;;;;;;;5052340;28;20025;-47
2023/08/06 12:42:26;;;;;;;10.63;2.63;;;;;;;;;;5051009;28;20029;-50
2023/08/06 12:44:53;;;;;;;8.75;3.05;;;;;;;;;;5051884;28;20096;-50
2023/08/06 12:47:20;;;;;;;7.28;2.55;;;;;;;;;;5052295;28;20032;-51
2023/08/06 12:49:47;;;;;;;11.30;2.90;;;;;;;;;;5052211;28;20029;-47
2023/08/06 12:52:15;;;;;;;8.13;2.90;;;;;;;;;;5052209;28;20035;-46
2023/08/06 12:54:42;;;;;;;8.45;2.63;;;;;;;;;;5051992;28;20056;-47
2023/08/06 12:57:09;;;;;;;8.88;2.88;;;;;;;;;;5051723;28;20032;-47
2023/08/06 12:59:36;;;;;;;9.35;2.90;;;;;;;;;;5051490;28;20033;-47
2023/08/06 13:02:03;;;;;;;14.10;2.70;;;;;;;;;;5051903;28;20037;-47
2023/08/06 13:04:31;;;;;;;11.35;3.08;;;;;;;;;;5051886;28;20063;-47
2023/08/06 13:06:58;;;;;;;10.10;3.10;;;;;;;;;;5050970;28;20126;-48
2023/08/06 13:09:27;;;;;;;12.10;3.10;;;;;;;;;;5051735;28;20029;-46
2023/08/06 13:11:54;;;;;;;16.15;3.08;;;;;;;;;;5051048;28;20068;-49
2023/08/06 13:14:21;;;;;;;10.02;2.40;;;;;;;;;;5051703;28;20032;-47
2023/08/06 13:16:48;;;;;;;12.38;2.78;;;;;;;;;;5051640;28;20025;-47
2023/08/06 13:19:15;;;;;;;12.10;2.85;;;;;;;;;;5051054;28;20041;-47
2023/08/06 13:21:42;;;;;;;10.07;2.58;;;;;;;;;;5051079;28;20028;-48
2023/08/06 13:24:10;;;;;;;10.43;2.60;;;;;;;;;;5050676;28;20621;-46
2023/08/06 13:26:37;;;;;;;10.02;2.63;;;;;;;;;;5048434;28;20084;-46
2023/08/06 13:29:07;;;;;;;9.75;2.60;;;;;;;;;;5051051;28;20020;-46
2023/08/06 13:31:34;;;;;;;13.65;2.65;;;;;;;;;;5051436;28;20037;-47
2023/08/06 13:34:01;;;;;;;9.27;2.55;;;;;;;;;;5051429;28;20029;-47
2023/08/06 13:36:28;;;;;;;11.07;2.70;;;;;;;;;;5051332;28;20372;-47
2023/08/06 13:38:56;;;;;;;16.00;2.90;;;;;;;;;;5051057;28;20509;-47
2023/08/06 13:41:23;;;;;;;16.40;2.85;;;;;;;;;;5051104;28;20059;-46
2023/08/06 13:43:50;;;;;;;20.05;2.85;;;;;;;;;;5047284;28;20476;-48
2023/08/06 13:46:19;;;;;;;9.73;2.65;;;;;;;;;;5057812;28;20487;-48
2023/08/06 13:48:50;;;;;;;17.33;2.78;;;;;;;;;;5050842;28;20037;-49
2023/08/06 13:51:17;;;;;;;13.80;2.72;;;;;;;;;;5051061;28;20118;-49
2023/08/06 13:53:44;;;;;;;11.60;2.80;;;;;;;;;;5049538;28;20454;-47
2023/08/06 13:56:12;;;;;;;9.07;2.78;;;;;;;;;;5051002;28;20056;-47
2023/08/06 13:58:39;;;;;;;13.18;2.45;;;;;;;;;;5050818;28;20060;-48
2023/08/06 14:01:06;;;;;;;18.15;2.72;;;;;;;;;;5050854;28;20033;-46
2023/08/06 14:03:33;;;;;;;11.95;2.60;;;;;;;;;;5037115;28;20029;-46
2023/08/06 14:06:00;;;;;;;12.38;3.00;;;;;;;;;;5050867;28;20538;-47
2023/08/06 14:08:27;;;;;;;13.85;3.10;;;;;;;;;;5069226;28;20029;-46
2023/08/06 14:10:54;;;;;;;19.05;3.22;;;;;;;;;;5070545;28;20024;-48
2023/08/06 14:13:22;;;;;;;28.98;4.25;;;;;;;;;;5061899;28;20029;-47
2023/08/06 14:15:49;;;;;;;27.65;4.43;;;;;;;;;;5050958;28;20471;-46
2023/08/06 14:18:17;;;;;;;32.42;4.05;;;;;;;;;;5071106;28;20028;-46
2023/08/06 14:20:44;;;;;;;27.50;4.28;;;;;;;;;;5070831;28;20047;-47
2023/08/06 14:23:11;;;;;;;35.95;4.38;;;;;;;;;;5070442;28;20033;-47
2023/08/06 14:25:40;;;;;;;36.97;4.55;;;;;;;;;;5072052;28;20402;-48
2023/08/06 14:28:07;;;;;;;29.27;4.88;;;;;;;;;;5074494;28;20090;-47
2023/08/06 14:30:34;;;;;;;25.80;4.57;;;;;;;;;;5074267;28;20143;-47
2023/08/06 14:33:02;;;;;;;29.55;4.22;;;;;;;;;;5074535;28;20025;-47